This is the latest recevied weather packets stored in our database for station/object W4SMH. If no packets are shown the sender has not sent any weather packets the latest 10 day(s).
| Time | Temp. | Humidity | Pressure | Rain* | Wind** | Luminosity | Snow |
|---|---|---|---|---|---|---|---|
| 1777726279 | 2.22° C | 89% | 1018.1 hPa | 0 mm | - | 315 W/m² | - |
| 1777726265 | 7.22° C | 78% | 1014 hPa | 0 mm | - | 615 W/m² | - |
| 1777726140 | 2.22° C | 89% | 1018.2 hPa | 0 mm | - | 299 W/m² | - |
| 1777725932 | 6.11° C | 78% | 1014.2 hPa | 0 mm | - | 169 W/m² | - |
| 1777725924 | 6.11° C | 78% | 1014.5 hPa | 0 mm | - | 165 W/m² | - |
| 1777725818 | 1.67° C | 89% | 1018.1 hPa | 0 mm | - | 283 W/m² | - |
| 1777725530 | 1.67° C | 90% | 1018.1 hPa | 0 mm | - | 265 W/m² | - |
| 1777725412 | 1.67° C | 90% | 1018.1 hPa | 0 mm | - | 251 W/m² | - |
| 1777725067 | 1.11° C | 90% | 1018.1 hPa | 0 mm | - | 246 W/m² | - |
| 1777724302 | 0.56° C | 90% | 1018 hPa | 0 mm | - | 186 W/m² | - |
| 1777724074 | 0.56° C | 90% | 1018 hPa | 0 mm | - | 171 W/m² | - |
| 1777723817 | 0° C | 89% | 1018 hPa | 0 mm | - | 146 W/m² | - |
| 1777723631 | 0° C | 89% | 1018 hPa | 0 mm | - | 118 W/m² | - |
| 1777722899 | -0.56° C | 89% | 1017.8 hPa | 0 mm | - | 74 W/m² | - |
| 1777722687 | -0.56° C | 89% | 1017.9 hPa | 0 mm | - | 54 W/m² | - |
| 1777722620 | -0.56° C | 89% | 1017.8 hPa | 0 mm | - | 58 W/m² | - |
| 1777721898 | -1.11° C | 88% | 1017.8 hPa | 0 mm | - | 32 W/m² | - |
| 1777721161 | -1.11° C | 88% | 1017.6 hPa | 0 mm | - | 14 W/m² | - |
| 1777720971 | -1.11° C | 88% | 1017.7 hPa | 0 mm | - | 14 W/m² | - |
| 1777720945 | -1.11° C | 88% | 1017.7 hPa | 0 mm | - | 14 W/m² | - |
| 1777720918 | -1.11° C | 88% | 1017.6 hPa | 0 mm | - | 14 W/m² | - |
| 1777719720 | -1.11° C | 87% | 1017.6 hPa | 0 mm | - | 7 W/m² | - |
| 1777719693 | -1.11° C | 87% | 1017.6 hPa | 0 mm | - | 7 W/m² | - |
| 1777718853 | -1.11° C | 87% | 1017.5 hPa | 0 mm | - | 5 W/m² | - |
| 1777718773 | -1.11° C | 87% | 1017.6 hPa | 0 mm | - | 0 W/m² | - |
* Rain latest hour (hover to see other rain measurements)
** Current wind speed in m/s (hover to see current wind gust speed)